Time;durP1;ratioP1;P1;durP2;ratioP2;P2;SDS_P1;SDS_P2;PMS_P1;PMS_P2;Temp;Humidity;BMP_temperature;BMP_pressure;BME280_temperature;BME280_humidity;BME280_pressure;Samples;Min_cycle;Max_cycle;Signal;HPM_P1;HPM_P2
2022/05/24 00:01:08;;;;;;;0.30;0.10;;;18.70;1.00;;;;;;5137431;27;20530;-56
2022/05/24 00:03:35;;;;;;;1.70;0.20;;;18.50;1.00;;;;;;5119896;27;20575;-56
2022/05/24 00:06:01;;;;;;;0.30;0.20;;;18.50;1.00;;;;;;5113238;28;20527;-55
2022/05/24 00:08:28;;;;;;;0.40;0.20;;;18.50;2.20;;;;;;5113185;28;20552;-54
2022/05/24 00:10:55;;;;;;;0.40;0.20;;;18.40;1.00;;;;;;5113982;28;20511;-53
2022/05/24 00:13:24;;;;;;;0.40;0.20;;;18.30;1.30;;;;;;5113252;28;20455;-56
2022/05/24 00:15:51;;;;;;;0.40;0.20;;;18.20;16.80;;;;;;5114203;28;20544;-52
2022/05/24 00:18:21;;;;;;;2.83;0.20;;;18.20;18.20;;;;;;5114868;28;20457;-54
2022/05/24 00:20:49;;;;;;;0.30;0.20;;;18.20;25.70;;;;;;5114246;28;20444;-54
2022/05/24 00:23:17;;;;;;;0.30;0.20;;;18.10;51.60;;;;;;5114621;28;21163;-55
2022/05/24 00:25:45;;;;;;;0.40;0.20;;;18.00;78.10;;;;;;5115336;28;20475;-51
2022/05/24 00:28:14;;;;;;;0.40;0.20;;;17.90;90.80;;;;;;5114969;28;20576;-56
2022/05/24 00:30:43;;;;;;;0.40;0.20;;;17.80;98.30;;;;;;5115243;28;20567;-54
2022/05/24 00:33:11;;;;;;;0.40;0.20;;;17.90;99.90;;;;;;5115438;28;20809;-55
2022/05/24 00:35:38;;;;;;;0.30;0.20;;;18.00;99.90;;;;;;5115020;28;20445;-55
2022/05/24 00:38:09;;;;;;;0.40;0.20;;;18.10;99.90;;;;;;5115565;28;20461;-55
2022/05/24 00:40:47;;;;;;;0.33;0.20;;;18.20;97.20;;;;;;5103603;28;20453;-56
2022/05/24 00:43:25;;;;;;;0.70;0.10;;;18.20;99.90;;;;;;5114019;28;20542;-59
2022/05/24 00:45:59;;;;;;;0.40;0.20;;;18.10;99.90;;;;;;5111221;28;20448;-57
2022/05/24 00:48:30;;;;;;;0.40;0.20;;;18.10;99.90;;;;;;5109428;28;20548;-54
2022/05/24 00:50:57;;;;;;;0.30;0.20;;;18.10;99.90;;;;;;5113828;28;20571;-54
2022/05/24 00:53:27;;;;;;;0.30;0.10;;;18.10;95.00;;;;;;5114236;28;20550;-55
2022/05/24 00:56:00;;;;;;;0.30;0.10;;;18.10;99.90;;;;;;5114540;28;20501;-54
2022/05/24 00:58:36;;;;;;;0.30;0.20;;;18.00;95.30;;;;;;5113622;28;20562;-52
2022/05/24 01:01:25;;;;;;;0.37;0.20;;;18.00;99.90;;;;;;5115093;28;20751;-56
2022/05/24 01:03:52;;;;;;;0.30;0.10;;;17.90;98.40;;;;;;5113442;28;20830;-56
2022/05/24 01:06:19;;;;;;;0.40;0.20;;;17.90;99.90;;;;;;5116452;28;20761;-54
2022/05/24 01:08:46;;;;;;;0.40;0.20;;;17.90;99.90;;;;;;5116218;28;20909;-56
2022/05/24 01:11:14;;;;;;;0.30;0.10;;;17.70;99.90;;;;;;5116791;28;20510;-54
2022/05/24 01:13:43;;;;;;;0.40;0.20;;;17.60;99.90;;;;;;5116402;28;20556;-56
2022/05/24 01:16:13;;;;;;;0.30;0.10;;;17.70;99.90;;;;;;5116330;28;20448;-51
2022/05/24 01:18:40;;;;;;;0.30;0.20;;;17.80;99.90;;;;;;5116439;28;20458;-54
2022/05/24 01:21:12;;;;;;;0.50;0.20;;;17.60;86.70;;;;;;5109901;28;20457;-55
2022/05/24 01:23:58;;;;;;;0.30;0.20;;;17.50;99.20;;;;;;5097517;28;20457;-54
2022/05/24 01:26:45;;;;;;;0.30;0.20;;;17.50;99.90;;;;;;5100257;28;20819;-51
2022/05/24 01:29:20;;;;;;;0.40;0.20;;;17.60;99.90;;;;;;5089503;28;20787;-56
2022/05/24 01:37:19;;;;;;;0.40;0.20;;;17.60;90.70;;;;;;5094626;28;21003;-58
2022/05/24 01:39:48;;;;;;;0.30;0.10;;;17.50;99.90;;;;;;5098908;28;20766;-54
2022/05/24 01:42:17;;;;;;;0.63;0.20;;;17.50;99.90;;;;;;5098367;28;20499;-54
2022/05/24 01:44:49;;;;;;;0.30;0.10;;;17.40;99.90;;;;;;5099128;28;20453;-56
2022/05/24 01:47:17;;;;;;;0.40;0.20;;;17.40;99.90;;;;;;5097596;28;20552;-54
2022/05/24 01:49:47;;;;;;;0.30;0.20;;;17.40;99.90;;;;;;5098568;28;20483;-56
2022/05/24 01:52:21;;;;;;;0.40;0.20;;;17.30;99.90;;;;;;5098528;28;20485;-54
2022/05/24 01:54:53;;;;;;;0.30;0.20;;;17.30;99.90;;;;;;5098575;28;20453;-56
2022/05/24 01:57:28;;;;;;;0.30;0.20;;;17.20;99.90;;;;;;5095020;28;20449;-52
2022/05/24 01:59:57;;;;;;;0.40;0.20;;;17.10;99.90;;;;;;5097926;28;20499;-54
2022/05/24 02:02:24;;;;;;;0.30;0.20;;;17.10;99.90;;;;;;5097072;28;20503;-53
2022/05/24 02:04:51;;;;;;;0.40;0.27;;;17.10;99.90;;;;;;5096988;28;20465;-56
2022/05/24 02:07:22;;;;;;;0.50;0.20;;;17.10;99.90;;;;;;5097656;28;20477;-54
2022/05/24 02:09:51;;;;;;;0.37;0.20;;;17.10;99.90;;;;;;5096816;28;20449;-54
2022/05/24 02:12:22;;;;;;;0.30;0.20;;;17.20;99.90;;;;;;5096290;28;20477;-55
2022/05/24 02:14:56;;;;;;;0.40;0.20;;;17.30;99.90;;;;;;5096513;28;20488;-55
2022/05/24 02:17:25;;;;;;;0.40;0.20;;;17.30;99.90;;;;;;5096480;28;20556;-54
2022/05/24 02:19:55;;;;;;;0.47;0.20;;;17.30;99.90;;;;;;5096436;28;20464;-53
2022/05/24 02:22:25;;;;;;;0.67;0.30;;;17.20;99.90;;;;;;5097036;28;20477;-55
2022/05/24 02:24:56;;;;;;;0.40;0.20;;;17.10;99.90;;;;;;5096698;28;20536;-55
2022/05/24 02:27:23;;;;;;;0.40;0.20;;;17.00;99.90;;;;;;5096885;28;20453;-55
2022/05/24 02:29:52;;;;;;;0.40;0.20;;;17.00;99.90;;;;;;5112576;28;20483;-54
2022/05/24 02:32:19;;;;;;;1.33;0.20;;;17.00;99.90;;;;;;5117648;28;20571;-56
2022/05/24 02:34:46;;;;;;;0.40;0.20;;;16.90;99.90;;;;;;5115199;28;20492;-55
2022/05/24 02:37:13;;;;;;;0.60;0.30;;;16.80;99.90;;;;;;5114247;27;20560;-55
2022/05/24 02:42:21;;;;;;;0.40;0.17;;;16.80;99.90;;;;;;5113495;28;21130;-53
2022/05/24 02:44:48;;;;;;;0.40;0.27;;;16.90;99.90;;;;;;5117328;28;20559;-56
2022/05/24 02:47:18;;;;;;;0.40;0.30;;;17.00;99.90;;;;;;5112954;28;20501;-51
2022/05/24 02:49:45;;;;;;;0.40;0.30;;;17.10;99.90;;;;;;5117553;28;20555;-56
2022/05/24 02:52:12;;;;;;;0.30;0.20;;;17.10;99.90;;;;;;5117734;28;20521;-56
2022/05/24 02:54:38;;;;;;;0.40;0.20;;;17.10;99.90;;;;;;5117317;28;20559;-55
2022/05/24 02:57:06;;;;;;;0.80;0.20;;;17.00;99.90;;;;;;5117134;28;20525;-56
2022/05/24 02:59:33;;;;;;;0.40;0.20;;;16.90;99.90;;;;;;5117356;28;20552;-56
2022/05/24 03:02:00;;;;;;;0.40;0.23;;;16.70;99.90;;;;;;5117181;28;20497;-54
2022/05/24 03:04:28;;;;;;;0.40;0.20;;;16.70;99.90;;;;;;5117378;28;20501;-56
2022/05/24 03:09:40;;;;;;;0.37;0.20;;;16.70;99.90;;;;;;5113743;28;20486;-54
2022/05/24 03:14:54;;;;;;;0.40;0.23;;;16.60;99.90;;;;;;5112830;28;20509;-54
2022/05/24 03:17:22;;;;;;;0.40;0.20;;;16.50;99.90;;;;;;5117317;28;20863;-53
2022/05/24 03:19:51;;;;;;;0.40;0.30;;;16.50;99.90;;;;;;5116824;28;20551;-52
2022/05/24 03:22:18;;;;;;;0.40;0.20;;;16.60;99.90;;;;;;5117408;28;20451;-55
2022/05/24 03:24:45;;;;;;;1.30;0.23;;;16.60;99.90;;;;;;5116954;28;20510;-54
2022/05/24 03:27:13;;;;;;;1.23;0.30;;;16.70;99.90;;;;;;5116958;28;20476;-54
2022/05/24 03:29:41;;;;;;;0.40;0.20;;;16.70;99.90;;;;;;5109426;28;20476;-55
2022/05/24 03:32:10;;;;;;;0.50;0.20;;;16.70;99.90;;;;;;5107912;28;21026;-55
2022/05/24 03:34:38;;;;;;;0.30;0.20;;;16.80;99.90;;;;;;5100178;28;20518;-55
2022/05/24 03:37:07;;;;;;;0.40;0.23;;;16.90;99.90;;;;;;5104135;28;20445;-54
2022/05/24 03:39:34;;;;;;;0.40;0.20;;;17.00;99.90;;;;;;5096023;28;20548;-54
2022/05/24 03:42:01;;;;;;;0.30;0.20;;;17.20;99.90;;;;;;5096681;28;20442;-55
2022/05/24 03:44:28;;;;;;;0.40;0.20;;;17.20;99.90;;;;;;5089526;28;20545;-53
2022/05/24 03:46:55;;;;;;;0.30;0.20;;;17.30;99.90;;;;;;5076380;28;20486;-55
2022/05/24 03:49:22;;;;;;;0.30;0.20;;;17.20;97.60;;;;;;5076727;28;20738;-54
2022/05/24 03:51:50;;;;;;;0.40;0.20;;;17.10;99.90;;;;;;5076400;28;20569;-53
2022/05/24 03:54:18;;;;;;;0.30;0.20;;;17.00;99.90;;;;;;5077876;28;20463;-54
2022/05/24 03:59:27;;;;;;;0.30;0.17;;;16.90;99.90;;;;;;5075206;28;20436;-55
2022/05/24 04:01:53;;;;;;;0.30;0.20;;;16.90;99.90;;;;;;5077937;28;20545;-55
2022/05/24 04:04:20;;;;;;;0.30;0.20;;;16.90;99.90;;;;;;5077567;28;20835;-55
2022/05/24 04:06:47;;;;;;;0.40;0.20;;;16.90;99.90;;;;;;5075727;28;20478;-54
2022/05/24 04:09:14;;;;;;;0.33;0.20;;;16.90;99.90;;;;;;5076649;28;20454;-55
2022/05/24 04:11:43;;;;;;;0.30;0.20;;;17.00;99.90;;;;;;5083076;28;20512;-54
2022/05/24 04:14:10;;;;;;;0.40;0.20;;;16.90;99.90;;;;;;5105444;28;20911;-55
2022/05/24 04:16:38;;;;;;;1.17;0.20;;;16.80;99.90;;;;;;5106115;28;20614;-55
2022/05/24 04:19:04;;;;;;;0.30;0.17;;;16.80;99.90;;;;;;5100962;28;20521;-55
2022/05/24 04:21:31;;;;;;;0.37;0.20;;;16.90;99.90;;;;;;5102616;28;20519;-55
2022/05/24 04:23:58;;;;;;;0.30;0.20;;;17.10;99.90;;;;;;5109364;28;20525;-54
2022/05/24 04:26:25;;;;;;;0.30;0.20;;;17.10;99.90;;;;;;5104348;28;20528;-54
2022/05/24 04:28:54;;;;;;;0.40;0.20;;;17.10;99.90;;;;;;5108740;28;20567;-51
2022/05/24 04:31:20;;;;;;;0.40;0.20;;;17.20;99.90;;;;;;5114904;28;20445;-54
2022/05/24 04:33:47;;;;;;;0.80;0.20;;;17.30;99.90;;;;;;5113890;28;20543;-55
2022/05/24 04:36:15;;;;;;;0.43;0.20;;;17.30;99.90;;;;;;5114296;28;20451;-55
2022/05/24 04:38:42;;;;;;;0.40;0.20;;;17.40;96.70;;;;;;5113795;28;20461;-54
2022/05/24 04:43:54;;;;;;;0.97;0.20;;;17.30;85.60;;;;;;5113431;28;20428;-55
2022/05/24 04:46:21;;;;;;;0.40;0.20;;;17.30;91.60;;;;;;5110011;28;20532;-56
2022/05/24 04:48:48;;;;;;;0.40;0.30;;;17.30;95.00;;;;;;5115045;28;20539;-53
2022/05/24 04:51:15;;;;;;;0.50;0.30;;;17.20;96.00;;;;;;5111741;28;20469;-55
2022/05/24 04:53:44;;;;;;;0.30;0.20;;;17.10;99.90;;;;;;5106962;28;20582;-55
2022/05/24 04:56:11;;;;;;;0.40;0.20;;;17.00;99.90;;;;;;5114162;28;20463;-50
2022/05/24 04:58:38;;;;;;;0.40;0.20;;;16.90;99.90;;;;;;5114482;28;20546;-56
2022/05/24 05:01:06;;;;;;;0.50;0.30;;;16.90;99.90;;;;;;5113251;28;21075;-57
2022/05/24 05:03:35;;;;;;;0.47;0.30;;;17.00;99.90;;;;;;5114309;28;20448;-54
2022/05/24 05:06:01;;;;;;;0.50;0.30;;;17.00;96.60;;;;;;5113770;28;20440;-55
2022/05/24 05:08:28;;;;;;;0.30;0.20;;;17.00;96.40;;;;;;5114215;28;20448;-53
2022/05/24 05:10:55;;;;;;;0.37;0.23;;;17.10;98.70;;;;;;5114061;28;20443;-54
2022/05/24 05:13:22;;;;;;;0.43;0.20;;;17.30;96.50;;;;;;5115708;28;20516;-53
2022/05/24 05:15:49;;;;;;;0.60;0.30;;;17.40;80.80;;;;;;5114818;28;20519;-53
2022/05/24 05:18:18;;;;;;;0.50;0.30;;;17.40;50.70;;;;;;5114486;28;20886;-54
2022/05/24 05:20:46;;;;;;;0.40;0.20;;;17.40;48.20;;;;;;5112522;28;20460;-54
2022/05/24 05:23:15;;;;;;;1.17;0.20;;;17.30;62.30;;;;;;5114545;28;20456;-53
2022/05/24 05:25:47;;;;;;;0.50;0.30;;;17.30;73.10;;;;;;5098113;28;20971;-52
2022/05/24 05:28:14;;;;;;;0.90;0.30;;;17.20;62.60;;;;;;5091736;28;20859;-52
2022/05/24 05:33:27;;;;;;;1.43;0.30;;;17.10;80.40;;;;;;5113682;28;20467;-53
2022/05/24 05:35:55;;;;;;;0.47;0.20;;;17.20;58.50;;;;;;5114089;28;20455;-53
2022/05/24 05:38:22;;;;;;;0.50;0.30;;;17.30;58.80;;;;;;5107411;28;20489;-54
2022/05/24 05:40:51;;;;;;;0.60;0.40;;;17.50;52.90;;;;;;5092230;28;20851;-53
2022/05/24 05:43:18;;;;;;;0.47;0.30;;;17.70;13.00;;;;;;5091868;28;20542;-55
2022/05/24 05:45:52;;;;;;;0.60;0.30;;;18.00;1.00;;;;;;5090489;28;20755;-54
2022/05/24 05:48:19;;;;;;;0.60;0.30;;;18.00;1.00;;;;;;5091642;28;20460;-56
2022/05/24 05:50:48;;;;;;;0.50;0.30;;;18.10;1.00;;;;;;5091369;28;20902;-55
2022/05/24 05:53:15;;;;;;;0.40;0.30;;;18.20;1.00;;;;;;5094229;28;20480;-55
2022/05/24 05:55:42;;;;;;;0.40;0.30;;;18.30;99.90;;;;;;5091650;28;20464;-52
2022/05/24 05:58:10;;;;;;;1.00;0.30;;;18.10;1.00;;;;;;5092796;28;20791;-52
2022/05/24 06:00:37;;;;;;;0.50;0.30;;;18.20;1.00;;;;;;5089908;28;20436;-55
2022/05/24 06:03:04;;;;;;;0.60;0.30;;;18.10;1.00;;;;;;5087703;28;20532;-54
2022/05/24 06:05:31;;;;;;;0.47;0.30;;;18.20;1.00;;;;;;5089500;28;20766;-52
2022/05/24 06:08:00;;;;;;;0.40;0.30;;;18.30;1.00;;;;;;5085445;28;20890;-54
2022/05/24 06:10:28;;;;;;;0.57;0.30;;;18.30;1.00;;;;;;5088891;28;20537;-52
2022/05/24 06:12:57;;;;;;;0.63;0.30;;;18.40;42.40;;;;;;5090703;28;20490;-52
2022/05/24 06:15:25;;;;;;;0.40;0.30;;;18.60;99.90;;;;;;5094935;28;20540;-56
2022/05/24 06:17:53;;;;;;;0.40;0.20;;;18.60;1.00;;;;;;5085815;28;20454;-54
2022/05/24 06:20:22;;;;;;;1.17;0.30;;;18.80;1.00;;;;;;5094446;28;20446;-55
2022/05/24 06:22:52;;;;;;;0.40;0.30;;;18.80;99.90;;;;;;5094786;28;20867;-53
2022/05/24 06:25:21;;;;;;;0.53;0.30;;;19.00;99.90;;;;;;5092678;28;20739;-57
2022/05/24 06:27:50;;;;;;;0.40;0.30;;;19.10;4.20;;;;;;5094583;28;20533;-55
2022/05/24 06:30:19;;;;;;;0.40;0.30;;;19.00;99.90;;;;;;5109912;27;20567;-52
2022/05/24 06:32:46;;;;;;;0.90;0.40;;;19.00;1.00;;;;;;5112739;27;20484;-56
2022/05/24 06:35:13;;;;;;;0.40;0.30;;;18.80;1.00;;;;;;5112371;28;20509;-58
2022/05/24 06:37:40;;;;;;;0.40;0.20;;;18.80;1.00;;;;;;5114966;28;20459;-56
2022/05/24 06:40:10;;;;;;;0.50;0.30;;;18.80;99.90;;;;;;5110098;28;20465;-59
2022/05/24 06:42:38;;;;;;;0.60;0.30;;;18.80;99.90;;;;;;5115281;27;20829;-60
2022/05/24 06:45:07;;;;;;;0.80;0.30;;;18.80;1.00;;;;;;5108906;28;20752;-60
2022/05/24 06:47:33;;;;;;;0.40;0.30;;;18.70;99.90;;;;;;5110452;27;20457;-59
2022/05/24 06:50:00;;;;;;;0.40;0.30;;;18.80;1.00;;;;;;5113188;27;20460;-59
2022/05/24 06:52:27;;;;;;;0.60;0.30;;;18.90;99.90;;;;;;5114904;27;20472;-59
2022/05/24 06:54:54;;;;;;;0.50;0.40;;;19.00;99.90;;;;;;5107988;28;20459;-59
2022/05/24 06:57:21;;;;;;;0.40;0.30;;;18.90;1.00;;;;;;5110763;27;20553;-59
2022/05/24 07:02:35;;;;;;;0.50;0.30;;;19.10;99.90;;;;;;5084447;28;20466;-59
2022/05/24 07:05:06;;;;;;;0.40;0.30;;;19.10;1.00;;;;;;5108661;28;20465;-59
2022/05/24 07:07:34;;;;;;;0.50;0.30;;;19.10;1.00;;;;;;5109378;27;20528;-59
2022/05/24 07:10:03;;;;;;;3.33;0.20;;;18.90;1.00;;;;;;5110272;27;20513;-59
2022/05/24 07:12:30;;;;;;;0.40;0.20;;;18.50;1.00;;;;;;5114295;28;20483;-51
2022/05/24 07:14:59;;;;;;;2.50;0.17;;;17.80;99.90;;;;;;5110496;27;20449;-54
2022/05/24 07:17:27;;;;;;;0.40;0.20;;;17.20;1.00;;;;;;5109762;28;20451;-55
2022/05/24 07:19:54;;;;;;;0.73;0.10;;;16.30;1.00;;;;;;5112358;28;20535;-52
2022/05/24 07:22:23;;;;;;;0.40;0.20;;;16.00;38.10;;;;;;5111591;27;20460;-51
2022/05/24 07:24:50;;;;;;;0.30;0.10;;;15.60;1.00;;;;;;5112234;27;20543;-53
2022/05/24 07:27:22;;;;;;;0.30;0.10;;;15.30;99.90;;;;;;5106795;27;20488;-54
2022/05/24 07:29:49;;;;;;;1.77;0.20;;;15.20;99.90;;;;;;5108374;28;20668;-53
2022/05/24 07:32:17;;;;;;;0.33;0.20;;;15.30;99.90;;;;;;5093864;28;20892;-55
2022/05/24 07:34:44;;;;;;;0.30;0.10;;;15.40;55.40;;;;;;5109078;27;20548;-52
2022/05/24 07:37:16;;;;;;;0.50;0.13;;;15.40;95.10;;;;;;5095930;28;20443;-53
2022/05/24 07:39:46;;;;;;;0.50;0.13;;;15.50;1.00;;;;;;5107858;27;20452;-51
2022/05/24 07:47:43;;;;;;;0.60;0.10;;;16.00;9.70;;;;;;5101989;28;20602;-53
2022/05/24 07:50:11;;;;;;;0.70;0.20;;;16.20;1.00;;;;;;5106910;27;20465;-50
2022/05/24 07:52:38;;;;;;;0.40;0.10;;;16.10;1.00;;;;;;5102010;27;20473;-53
2022/05/24 07:55:06;;;;;;;0.53;0.10;;;16.30;1.00;;;;;;5105903;27;21153;-54
2022/05/24 07:57:32;;;;;;;1.67;0.20;;;16.40;1.00;;;;;;5102109;28;20442;-54
2022/05/24 07:59:59;;;;;;;1.07;0.17;;;16.40;1.00;;;;;;5110078;28;20449;-49
2022/05/24 08:02:29;;;;;;;0.30;0.10;;;16.50;1.00;;;;;;5105420;27;20531;-54
2022/05/24 08:05:01;;;;;;;0.47;0.17;;;16.70;1.00;;;;;;5113364;27;21116;-50
2022/05/24 08:07:28;;;;;;;0.47;0.13;;;17.00;1.00;;;;;;5101047;28;20473;-51
2022/05/24 08:09:55;;;;;;;0.50;0.20;;;16.80;1.00;;;;;;5106183;28;20479;-53
2022/05/24 08:12:22;;;;;;;0.30;0.10;;;16.80;1.00;;;;;;5108139;28;20294;-47
2022/05/24 08:14:49;;;;;;;0.37;0.20;;;17.00;1.00;;;;;;5113738;27;20955;-51
2022/05/24 08:17:16;;;;;;;0.67;0.10;;;17.30;1.00;;;;;;5108447;27;20543;-47
2022/05/24 08:19:43;;;;;;;0.30;0.10;;;17.40;1.00;;;;;;5111905;28;20548;-53
2022/05/24 08:22:11;;;;;;;0.60;0.10;;;17.40;1.00;;;;;;5110628;27;20548;-53
2022/05/24 08:24:38;;;;;;;0.40;0.20;;;17.50;1.00;;;;;;5111848;27;20539;-52
2022/05/24 08:27:06;;;;;;;0.30;0.10;;;17.40;1.00;;;;;;5123423;27;20908;-51
2022/05/24 08:29:35;;;;;;;0.40;0.20;;;17.60;1.00;;;;;;5111138;27;20476;-52
2022/05/24 08:32:02;;;;;;;0.30;0.10;;;17.70;1.00;;;;;;5109303;28;20437;-52
2022/05/24 08:34:31;;;;;;;0.57;0.30;;;17.60;1.00;;;;;;5105375;27;20480;-52
2022/05/24 08:36:58;;;;;;;0.50;0.30;;;17.60;99.90;;;;;;5111899;28;20455;-51
2022/05/24 08:39:27;;;;;;;0.93;0.30;;;17.40;1.00;;;;;;5103307;27;20546;-52
2022/05/24 08:42:14;;;;;;;0.60;0.30;;;17.50;1.00;;;;;;5111862;28;21042;-52
2022/05/24 08:50:20;;;;;;;1.00;0.13;;;18.10;99.90;;;;;;5113959;28;20428;-50
2022/05/24 08:52:51;;;;;;;0.30;0.20;;;18.20;1.00;;;;;;5110763;28;20495;-49
2022/05/24 08:55:19;;;;;;;0.50;0.10;;;18.10;99.90;;;;;;5107386;27;20488;-54
2022/05/24 08:57:50;;;;;;;0.40;0.20;;;17.80;1.00;;;;;;5108659;28;20454;-53
2022/05/24 09:00:20;;;;;;;0.30;0.10;;;17.80;90.80;;;;;;5109238;28;20440;-50
2022/05/24 09:02:49;;;;;;;0.50;0.27;;;17.60;1.00;;;;;;5106654;28;20881;-53
2022/05/24 09:05:20;;;;;;;0.47;0.20;;;17.90;99.90;;;;;;5105997;28;20542;-53
2022/05/24 09:08:09;;;;;;;0.30;0.20;;;18.30;52.10;;;;;;5102197;28;20529;-50
2022/05/24 09:10:45;;;;;;;0.50;0.20;;;18.60;1.00;;;;;;5103970;28;20978;-51
2022/05/24 09:13:28;;;;;;;0.37;0.20;;;18.80;1.00;;;;;;5110163;28;20480;-51
2022/05/24 09:16:02;;;;;;;0.30;0.20;;;18.90;99.90;;;;;;5109112;28;20559;-51
2022/05/24 09:18:36;;;;;;;1.90;0.20;;;19.10;99.90;;;;;;5106612;28;20811;-52
2022/05/24 09:21:05;;;;;;;0.30;0.20;;;19.30;1.00;;;;;;5102934;28;20580;-51
2022/05/24 09:23:37;;;;;;;0.67;0.13;;;19.10;99.90;;;;;;5103697;28;20895;-51
2022/05/24 09:26:07;;;;;;;0.40;0.20;;;19.10;99.90;;;;;;5109028;28;20495;-48
2022/05/24 09:28:47;;;;;;;0.33;0.20;;;19.30;99.90;;;;;;5112052;28;20444;-50
2022/05/24 09:31:21;;;;;;;0.47;0.20;;;19.50;63.50;;;;;;5122234;28;20504;-52
2022/05/24 09:33:55;;;;;;;0.40;0.20;;;19.60;31.20;;;;;;5101276;28;20572;-49
2022/05/24 09:36:35;;;;;;;0.40;0.10;;;19.30;5.30;;;;;;5100480;28;20552;-47
2022/05/24 09:39:05;;;;;;;0.40;0.13;;;19.30;31.20;;;;;;5108792;28;20463;-46
2022/05/24 09:41:34;;;;;;;2.00;0.30;;;19.10;11.00;;;;;;5111357;28;20498;-51
2022/05/24 09:44:07;;;;;;;0.53;0.10;;;19.30;1.00;;;;;;5112448;28;20524;-53
2022/05/24 09:46:37;;;;;;;0.40;0.20;;;19.30;1.00;;;;;;5136326;27;20448;-50
2022/05/24 09:49:19;;;;;;;0.30;0.10;;;19.50;1.00;;;;;;5138268;27;20447;-47
2022/05/24 09:51:46;;;;;;;0.40;0.20;;;19.30;1.00;;;;;;5135892;27;20452;-51
2022/05/24 09:54:16;;;;;;;0.40;0.10;;;19.30;1.00;;;;;;5137050;27;20490;-50
2022/05/24 09:57:00;;;;;;;0.67;0.20;;;19.20;1.00;;;;;;5137060;27;20454;-49
2022/05/24 09:59:28;;;;;;;0.30;0.10;;;19.00;1.00;;;;;;5137118;27;20453;-50
2022/05/24 10:01:55;;;;;;;1.33;0.40;;;18.40;1.00;;;;;;5103907;27;20477;-51
2022/05/24 10:04:26;;;;;;;0.30;0.10;;;18.70;1.00;;;;;;5096675;28;20528;-49
2022/05/24 10:06:57;;;;;;;0.50;0.30;;;19.00;1.00;;;;;;5095249;28;20445;-47
2022/05/24 10:09:45;;;;;;;0.30;0.10;;;19.30;1.00;;;;;;5099315;27;21086;-46
2022/05/24 10:12:23;;;;;;;0.40;0.20;;;19.50;1.00;;;;;;5096355;28;20552;-48
2022/05/24 10:15:06;;;;;;;0.50;0.10;;;20.20;1.00;;;;;;5121374;27;20808;-50
2022/05/24 10:17:42;;;;;;;2.00;0.50;;;20.40;1.00;;;;;;5137042;27;21060;-53
2022/05/24 10:20:17;;;;;;;0.30;0.10;;;20.80;1.00;;;;;;5116441;27;20448;-49
2022/05/24 10:22:50;;;;;;;0.40;0.20;;;21.20;1.00;;;;;;5096932;28;20872;-50
2022/05/24 10:25:22;;;;;;;0.80;0.23;;;21.50;1.00;;;;;;5095952;28;20500;-50
2022/05/24 10:28:16;;;;;;;0.33;0.20;;;21.90;1.00;;;;;;5114514;27;20832;-48
2022/05/24 10:31:00;;;;;;;0.47;0.20;;;21.70;1.00;;;;;;5128947;27;20536;-45
2022/05/24 10:39:26;;;;;;;0.40;0.20;;;22.40;1.00;;;;;;5137403;27;20434;-49
2022/05/24 10:42:01;;;;;;;0.40;0.20;;;21.80;1.00;;;;;;5107759;27;20456;-51
2022/05/24 10:44:40;;;;;;;0.30;0.10;;;21.20;1.00;;;;;;5105875;27;20434;-51
2022/05/24 10:47:09;;;;;;;0.30;0.10;;;20.60;1.00;;;;;;5105857;28;20543;-47
2022/05/24 10:49:44;;;;;;;0.40;0.20;;;20.90;1.00;;;;;;5106519;27;20541;-49
2022/05/24 10:52:17;;;;;;;0.27;0.10;;;21.10;1.00;;;;;;5112081;27;20810;-48
2022/05/24 10:54:51;;;;;;;0.30;0.10;;;21.40;1.00;;;;;;5102378;28;20479;-48
2022/05/24 10:57:22;;;;;;;0.30;0.10;;;21.40;1.00;;;;;;5101293;28;20453;-51
2022/05/24 10:59:58;;;;;;;0.30;0.10;;;21.00;1.00;;;;;;5086894;28;20525;-50
2022/05/24 11:02:33;;;;;;;1.63;0.10;;;20.90;1.00;;;;;;5097758;28;20449;-50
2022/05/24 11:05:07;;;;;;;0.30;0.20;;;20.80;1.00;;;;;;5093008;28;20443;-50
2022/05/24 11:07:36;;;;;;;0.33;0.17;;;20.50;1.00;;;;;;5086254;28;20923;-49
2022/05/24 11:10:11;;;;;;;0.30;0.10;;;20.70;1.00;;;;;;5098360;28;20449;-54
2022/05/24 11:12:44;;;;;;;0.40;0.20;;;20.90;1.00;;;;;;5095824;28;20556;-52
2022/05/24 11:15:21;;;;;;;0.30;0.20;;;21.30;1.00;;;;;;5088420;28;20572;-52
2022/05/24 11:17:48;;;;;;;0.30;0.10;;;21.20;1.00;;;;;;5086912;28;20485;-52
2022/05/24 11:20:21;;;;;;;0.30;0.10;;;21.10;1.00;;;;;;5084347;28;20680;-54
2022/05/24 11:23:03;;;;;;;0.40;0.10;;;20.80;1.00;;;;;;5088796;28;20445;-53
2022/05/24 11:25:34;;;;;;;0.73;0.40;;;20.70;1.00;;;;;;5091414;28;20560;-53
2022/05/24 11:28:18;;;;;;;0.40;0.20;;;20.60;1.00;;;;;;5094267;28;20817;-54
2022/05/24 11:30:48;;;;;;;0.50;0.20;;;20.90;1.00;;;;;;5100199;28;20883;-51
2022/05/24 11:33:18;;;;;;;0.50;0.20;;;21.80;1.00;;;;;;5100422;28;20735;-54
2022/05/24 11:35:50;;;;;;;0.30;0.10;;;22.40;1.00;;;;;;5098786;28;21148;-52
2022/05/24 11:38:20;;;;;;;0.30;0.20;;;22.90;1.00;;;;;;5095713;28;20462;-53
2022/05/24 11:41:01;;;;;;;0.50;0.10;;;23.10;1.00;;;;;;5090386;28;20449;-53
2022/05/24 11:44:05;;;;;;;0.80;0.20;;;22.60;1.00;;;;;;5094403;28;20501;-54
2022/05/24 11:46:49;;;;;;;0.30;0.20;;;21.90;1.00;;;;;;5094296;28;20444;-50
2022/05/24 11:50:05;;;;;;;0.50;0.20;;;21.80;1.00;;;;;;5084942;28;20442;-51
2022/05/24 11:53:00;;;;;;;0.30;0.20;;;21.70;1.00;;;;;;5094461;28;20453;-54
2022/05/24 11:55:46;;;;;;;0.40;0.20;;;21.80;1.00;;;;;;5090830;28;20473;-53
2022/05/24 11:58:49;;;;;;;0.30;0.20;;;22.10;1.00;;;;;;5084528;28;20453;-52
2022/05/24 12:01:45;;;;;;;0.30;0.20;;;21.70;1.00;;;;;;5073000;28;20442;-54
2022/05/24 12:10:11;;;;;;;0.30;0.10;;;20.70;1.00;;;;;;5082851;28;20872;-58
2022/05/24 12:12:46;;;;;;;0.30;0.10;;;20.60;1.00;;;;;;5094342;28;20542;-57
2022/05/24 12:15:17;;;;;;;0.30;0.20;;;20.70;1.00;;;;;;5092467;28;20567;-58
2022/05/24 12:17:47;;;;;;;0.40;0.13;;;20.90;1.00;;;;;;5094218;28;20549;-57
2022/05/24 12:20:30;;;;;;;0.33;0.20;;;21.10;1.00;;;;;;5092586;28;20525;-56
2022/05/24 12:23:18;;;;;;;0.40;0.20;;;21.00;1.00;;;;;;5093993;28;20884;-60
2022/05/24 12:25:54;;;;;;;0.43;0.20;;;21.00;1.00;;;;;;5090297;28;20499;-58
2022/05/24 12:28:22;;;;;;;0.30;0.20;;;20.90;1.00;;;;;;5091669;28;20453;-58
2022/05/24 12:30:51;;;;;;;0.47;0.20;;;20.50;1.00;;;;;;5090236;28;20822;-58
2022/05/24 12:33:36;;;;;;;0.40;0.20;;;20.50;1.00;;;;;;5090620;28;20568;-59
2022/05/24 12:36:22;;;;;;;0.40;0.20;;;21.00;1.00;;;;;;5090392;28;20944;-58
2022/05/24 12:38:52;;;;;;;0.40;0.20;;;21.90;1.00;;;;;;5091796;28;20450;-57
2022/05/24 12:41:26;;;;;;;0.30;0.20;;;22.00;1.00;;;;;;5090724;28;20449;-56
2022/05/24 12:43:57;;;;;;;0.30;0.10;;;21.70;1.00;;;;;;5092741;28;20453;-54
2022/05/24 12:46:28;;;;;;;0.30;0.10;;;21.70;1.00;;;;;;5092699;28;20813;-57
2022/05/24 12:49:05;;;;;;;0.30;0.10;;;21.60;1.00;;;;;;5092504;28;20461;-56
2022/05/24 12:51:32;;;;;;;0.30;0.20;;;21.80;1.00;;;;;;5092026;28;20495;-57
2022/05/24 12:54:14;;;;;;;0.40;0.17;;;22.80;1.00;;;;;;5103549;28;20568;-57
2022/05/24 12:56:53;;;;;;;0.30;0.20;;;23.00;1.00;;;;;;5112083;28;20480;-57
2022/05/24 12:59:29;;;;;;;0.90;0.20;;;22.90;1.00;;;;;;5113810;28;20539;-56
2022/05/24 13:01:56;;;;;;;0.30;0.17;;;22.60;1.00;;;;;;5113545;28;20743;-57
2022/05/24 13:04:27;;;;;;;3.20;0.20;;;22.60;1.00;;;;;;5113733;28;20480;-57
2022/05/24 13:06:54;;;;;;;0.60;0.20;;;22.00;1.00;;;;;;5112132;28;20445;-57
2022/05/24 13:09:25;;;;;;;0.40;0.20;;;21.60;1.00;;;;;;5112987;28;20544;-57
2022/05/24 13:11:55;;;;;;;0.30;0.20;;;21.50;1.00;;;;;;5111889;28;20445;-57
2022/05/24 13:14:44;;;;;;;1.23;0.20;;;21.40;1.00;;;;;;5113577;28;20973;-56
2022/05/24 13:17:12;;;;;;;0.40;0.20;;;21.40;1.00;;;;;;5113823;28;20453;-57
2022/05/24 13:19:55;;;;;;;0.77;0.20;;;21.20;1.00;;;;;;5115461;28;20450;-57
2022/05/24 13:22:25;;;;;;;0.30;0.20;;;21.10;1.00;;;;;;5117082;28;20448;-57
2022/05/24 13:24:56;;;;;;;0.40;0.20;;;21.10;1.00;;;;;;5118024;28;20480;-60
2022/05/24 13:27:23;;;;;;;0.40;0.20;;;21.00;1.00;;;;;;5117500;28;20543;-61
2022/05/24 13:35:29;;;;;;;2.20;0.37;;;22.10;1.00;;;;;;5116207;28;20563;-59
2022/05/24 13:37:59;;;;;;;0.57;0.20;;;22.70;1.00;;;;;;5114611;28;20954;-59
2022/05/24 13:40:41;;;;;;;0.40;0.20;;;23.40;1.00;;;;;;5116566;28;20455;-59
2022/05/24 13:43:09;;;;;;;0.40;0.20;;;23.80;1.00;;;;;;5113273;28;20946;-59
2022/05/24 13:45:38;;;;;;;0.40;0.20;;;23.80;1.00;;;;;;5117242;28;20467;-60
2022/05/24 13:48:24;;;;;;;1.70;0.20;;;24.10;1.00;;;;;;5112116;28;20461;-59
2022/05/24 13:51:04;;;;;;;0.40;0.20;;;24.20;1.00;;;;;;5095284;28;20440;-59
2022/05/24 13:53:36;;;;;;;0.30;0.20;;;24.00;1.00;;;;;;5101366;28;20484;-59
2022/05/24 13:56:07;;;;;;;0.60;0.30;;;23.90;1.00;;;;;;5111072;27;20514;-57
2022/05/24 13:58:36;;;;;;;0.67;0.20;;;23.70;1.00;;;;;;5102111;28;20548;-59
2022/05/24 14:01:06;;;;;;;0.40;0.20;;;23.70;1.00;;;;;;5102502;28;20539;-58
2022/05/24 14:03:47;;;;;;;0.40;0.20;;;23.40;1.00;;;;;;5116333;28;20440;-58
2022/05/24 14:06:20;;;;;;;0.50;0.20;;;23.00;1.00;;;;;;5116438;28;20460;-58